createdAt,value
2022-11-05T00:03:40.773Z,100775.97
2022-11-05T00:09:02.480Z,100777.25
2022-11-05T00:14:22.837Z,100778.50
2022-11-05T00:19:25.658Z,100778.97
2022-11-05T00:24:47.349Z,100791.63
2022-11-05T00:29:50.099Z,100800.84
2022-11-05T00:34:52.844Z,100794.41
2022-11-05T00:39:56.933Z,100796.03
2022-11-05T00:45:02.532Z,100807.78
2022-11-05T00:50:06.112Z,100807.31
2022-11-05T00:55:10.223Z,100804.34
2022-11-05T01:00:14.297Z,100815.97
2022-11-05T01:05:17.234Z,100813.78
2022-11-05T01:10:22.274Z,100821.97
2022-11-05T01:15:25.095Z,100825.81
2022-11-05T01:20:28.002Z,100833.22
2022-11-05T01:25:32.123Z,100834.44
2022-11-05T01:30:34.851Z,100842.00
2022-11-05T01:35:37.569Z,100838.88
2022-11-05T01:40:44.030Z,100834.16
2022-11-05T01:45:50.614Z,100844.13
2022-11-05T01:50:58.422Z,100843.84
2022-11-05T01:56:28.992Z,100856.63
2022-11-05T02:01:33.161Z,100857.25
2022-11-05T02:06:42.616Z,100860.34
2022-11-05T02:11:48.229Z,100865.28
2022-11-05T02:16:57.737Z,100866.69
2022-11-05T02:22:22.638Z,100871.72
2022-11-05T02:27:50.160Z,100885.09
2022-11-05T02:33:04.906Z,100877.50
2022-11-05T02:38:10.073Z,100878.09
2022-11-05T02:43:16.869Z,100882.03
2022-11-05T02:48:27.503Z,100872.66
2022-11-05T02:53:39.933Z,100883.50
2022-11-05T02:58:43.032Z,100879.63
2022-11-05T03:03:49.217Z,100878.44
2022-11-05T03:09:30.407Z,100878.34
2022-11-05T03:14:41.461Z,100881.31
2022-11-05T03:19:50.559Z,100883.38
2022-11-05T03:24:59.343Z,100894.44
2022-11-05T03:30:06.336Z,100894.22
2022-11-05T03:35:16.170Z,100901.63
2022-11-05T03:40:23.696Z,100898.59
2022-11-05T03:45:31.084Z,100905.09
2022-11-05T03:50:41.728Z,100919.31
2022-11-05T03:55:52.053Z,100919.88
2022-11-05T04:00:55.385Z,100918.66
2022-11-05T04:06:17.378Z,100926.84
2022-11-05T04:11:37.604Z,100933.88
2022-11-05T04:16:58.027Z,100940.16
2022-11-05T04:22:19.795Z,100943.78
2022-11-05T04:27:22.977Z,100941.75
2022-11-05T04:32:25.827Z,100945.59
2022-11-05T04:37:30.325Z,100945.03
2022-11-05T04:42:33.216Z,100951.38
2022-11-05T04:47:36.135Z,100947.53
2022-11-05T04:52:40.821Z,100952.88
2022-11-05T04:57:43.985Z,100958.97
2022-11-05T05:02:47.308Z,100959.09
2022-11-05T05:07:51.617Z,100962.41
2022-11-05T05:12:54.578Z,100971.13
2022-11-05T05:17:57.508Z,100978.28
2022-11-05T05:23:01.840Z,100990.53
2022-11-05T05:28:04.795Z,100993.25
2022-11-05T05:33:07.699Z,100988.63
2022-11-05T05:38:23.055Z,100991.22
2022-11-05T05:43:26.257Z,101000.75
2022-11-05T05:48:29.359Z,101005.84
2022-11-05T05:53:34.335Z,101013.44
2022-11-05T05:58:39.617Z,101006.50
2022-11-05T06:03:42.852Z,101014.59
2022-11-05T06:08:48.384Z,101016.63
2022-11-05T06:13:54.759Z,101026.16
2022-11-05T06:18:57.647Z,101025.38
2022-11-05T06:24:05.896Z,101025.50
2022-11-05T06:29:09.253Z,101041.28
2022-11-05T06:34:12.145Z,101041.50
2022-11-05T06:39:16.431Z,101049.22
2022-11-05T06:44:21.402Z,101051.06
2022-11-05T06:49:25.791Z,101050.34
2022-11-05T06:54:30.345Z,101053.22
2022-11-05T06:59:33.631Z,101059.47
2022-11-05T07:04:40.288Z,101063.19
2022-11-05T07:10:31.635Z,101072.53
2022-11-05T07:15:36.162Z,101084.25
2022-11-05T07:20:39.101Z,101081.97
2022-11-05T07:25:43.802Z,101084.03
2022-11-05T07:30:49.411Z,101094.81
2022-11-05T07:35:52.671Z,101102.88
2022-11-05T07:40:55.710Z,101105.28
2022-11-05T07:46:00.408Z,101100.75
2022-11-05T07:51:03.347Z,101101.44
2022-11-05T07:56:07.092Z,101101.31
2022-11-05T08:01:11.621Z,101124.16
2022-11-05T08:06:14.855Z,101118.34
2022-11-05T08:11:18.962Z,101129.81
2022-11-05T08:16:23.012Z,101129.00
2022-11-05T08:21:25.751Z,101131.13
2022-11-05T08:26:28.454Z,101132.38
2022-11-05T08:31:32.727Z,101140.59
2022-11-05T08:36:36.212Z,101129.47
2022-11-05T08:41:40.400Z,101134.28
2022-11-05T08:46:44.685Z,101128.38
2022-11-05T08:51:47.600Z,101132.94
2022-11-05T08:56:50.348Z,101125.09
2022-11-05T09:01:54.542Z,101133.88
2022-11-05T09:06:57.268Z,101141.28
2022-11-05T09:12:12.709Z,101151.34
2022-11-05T09:17:19.763Z,101149.59
2022-11-05T09:22:22.551Z,101158.97
2022-11-05T09:27:25.439Z,101163.69
2022-11-05T09:32:29.512Z,101163.25
2022-11-05T09:37:32.239Z,101165.03
2022-11-05T09:42:40.394Z,101173.84
2022-11-05T09:47:49.755Z,101179.97
2022-11-05T09:52:52.585Z,101179.00
2022-11-05T09:57:58.679Z,101184.97
2022-11-05T10:03:07.833Z,101200.78
2022-11-05T10:08:17.326Z,101206.59
2022-11-05T10:13:26.437Z,101205.16
2022-11-05T10:18:34.247Z,101196.50
2022-11-05T10:23:37.652Z,101196.81
2022-11-05T10:28:40.401Z,101201.69
2022-11-05T10:33:46.902Z,101210.94
2022-11-05T10:38:49.923Z,101212.16
2022-11-05T10:44:01.640Z,101213.88
2022-11-05T10:49:29.079Z,101217.59
2022-11-05T10:54:35.980Z,101225.75
2022-11-05T10:59:38.714Z,101224.75
2022-11-05T11:04:43.029Z,101227.47
2022-11-05T11:09:49.686Z,101227.66
2022-11-05T11:15:02.343Z,101235.91
2022-11-05T11:20:22.087Z,101239.81
2022-11-05T11:25:27.114Z,101234.78
2022-11-05T11:30:30.083Z,101239.59
2022-11-05T11:35:38.660Z,101241.75
2022-11-05T11:40:41.879Z,101237.84
2022-11-05T11:45:50.231Z,101230.38
2022-11-05T11:50:54.766Z,101230.06
2022-11-05T11:56:03.999Z,101222.69
2022-11-05T12:01:21.009Z,101225.63
2022-11-05T12:06:34.391Z,101222.59
2022-11-05T12:11:42.854Z,101228.47
2022-11-05T12:17:08.468Z,101228.81
2022-11-05T12:22:24.464Z,101222.06
2022-11-05T12:27:39.355Z,101221.81
2022-11-05T12:33:18.574Z,101228.41
2022-11-05T12:38:31.999Z,101229.72
2022-11-05T12:43:45.514Z,101223.13
2022-11-05T12:49:07.913Z,101224.34
2022-11-05T12:54:22.778Z,101226.31
2022-11-05T12:59:32.499Z,101217.50
2022-11-05T13:04:42.198Z,101217.34
2022-11-05T13:09:53.784Z,101223.44
2022-11-05T13:15:00.858Z,101223.44
2022-11-05T13:20:17.388Z,101225.66
2022-11-05T13:25:25.244Z,101213.47
2022-11-05T13:30:32.603Z,101229.28
2022-11-05T13:35:42.702Z,101222.03
2022-11-05T13:40:59.646Z,101222.78
2022-11-05T13:46:19.385Z,101226.16
2022-11-05T13:51:38.919Z,101226.22
2022-11-05T13:57:01.479Z,101233.84
2022-11-05T14:02:07.203Z,101232.59
2022-11-05T14:07:12.784Z,101234.09
2022-11-05T14:12:22.345Z,101235.50
2022-11-05T14:17:33.275Z,101240.25
2022-11-05T14:22:42.577Z,101247.16
2022-11-05T14:27:49.210Z,101245.88
2022-11-05T14:32:53.136Z,101251.28
2022-11-05T14:37:57.582Z,101253.34
2022-11-05T14:43:04.484Z,101253.81
2022-11-05T14:48:24.512Z,101254.13
2022-11-05T14:53:32.809Z,101265.16
2022-11-05T14:58:38.751Z,101263.63
2022-11-05T15:04:04.365Z,101270.19
2022-11-05T15:09:24.007Z,101281.09
2022-11-05T15:14:34.569Z,101279.28
2022-11-05T15:19:39.968Z,101282.75
2022-11-05T15:24:43.787Z,101285.06
2022-11-05T15:29:47.974Z,101296.47
2022-11-05T15:34:55.008Z,101288.84
2022-11-05T15:39:57.764Z,101291.81
2022-11-05T15:45:01.967Z,101292.88
2022-11-05T15:50:14.769Z,101293.63
2022-11-05T15:55:24.409Z,101296.31
2022-11-05T16:00:31.435Z,101300.81
2022-11-05T16:05:42.858Z,101305.56
2022-11-05T16:10:48.963Z,101308.50
2022-11-05T16:15:57.632Z,101303.84
2022-11-05T16:21:04.750Z,101309.53
2022-11-05T16:27:01.302Z,101319.72
2022-11-05T16:32:01.009Z,101327.91
2022-11-05T16:37:06.162Z,101330.16
2022-11-05T16:42:37.312Z,101334.88
2022-11-05T16:47:42.454Z,101330.66
2022-11-05T16:52:46.450Z,101344.94
2022-11-05T16:57:52.554Z,101340.97
2022-11-05T17:02:56.779Z,101334.41
2022-11-05T17:08:01.167Z,101343.78
2022-11-05T17:13:03.933Z,101349.41
2022-11-05T17:18:08.049Z,101348.09
2022-11-05T17:23:12.237Z,101353.72
2022-11-05T17:28:16.470Z,101354.09
2022-11-05T17:33:21.530Z,101355.50
2022-11-05T17:38:26.093Z,101352.34
2022-11-05T17:43:28.849Z,101347.38
2022-11-05T17:48:32.896Z,101361.84
2022-11-05T17:53:35.627Z,101368.56
2022-11-05T17:58:38.867Z,101365.72
2022-11-05T18:03:42.947Z,101378.72
2022-11-05T18:08:45.696Z,101383.19
2022-11-05T18:13:48.539Z,101383.19
2022-11-05T18:18:52.649Z,101381.16
2022-11-05T18:23:55.402Z,101372.97
2022-11-05T18:28:58.319Z,101366.34
2022-11-05T18:34:02.584Z,101372.88
2022-11-05T18:39:06.681Z,101372.53
2022-11-05T18:44:09.777Z,101366.75
2022-11-05T18:49:13.878Z,101368.25
2022-11-05T18:54:16.651Z,101367.88
2022-11-05T18:59:38.775Z,101368.34
2022-11-05T19:05:06.720Z,101368.03
2022-11-05T19:10:09.067Z,101368.13
2022-11-05T19:15:12.245Z,101360.06
2022-11-05T19:20:17.146Z,101359.84
2022-11-05T19:25:20.305Z,101364.75
2022-11-05T19:30:23.032Z,101365.19
2022-11-05T19:35:27.182Z,101376.25
2022-11-05T19:40:30.159Z,101376.03
2022-11-05T19:45:48.306Z,101376.59
2022-11-05T19:50:52.411Z,101386.03
2022-11-05T19:55:55.406Z,101384.31
2022-11-05T20:00:58.442Z,101394.91
2022-11-05T20:06:08.167Z,101386.72
2022-11-05T20:11:11.021Z,101392.63
2022-11-05T20:16:22.159Z,101397.75
2022-11-05T20:21:26.658Z,101395.91
2022-11-05T20:26:29.930Z,101388.44
2022-11-05T20:31:33.003Z,101381.59
2022-11-05T20:36:37.631Z,101370.34
2022-11-05T20:41:40.389Z,101380.00
2022-11-05T20:46:43.345Z,101382.50
2022-11-05T20:51:47.396Z,101390.22
2022-11-05T20:56:50.205Z,101386.72
2022-11-05T21:01:53.258Z,101384.09
2022-11-05T21:06:57.484Z,101392.75
2022-11-05T21:12:12.077Z,101391.38
2022-11-05T21:17:14.934Z,101394.13
2022-11-05T21:22:19.025Z,101407.22
2022-11-05T21:27:21.763Z,101402.09
2022-11-05T21:32:24.501Z,101409.38
2022-11-05T21:37:28.643Z,101398.34
2022-11-05T21:42:31.399Z,101390.59
2022-11-05T21:47:34.217Z,101385.47
2022-11-05T21:52:55.799Z,101395.13
2022-11-05T21:58:19.703Z,101398.00
2022-11-05T22:03:22.510Z,101396.06
2022-11-05T22:08:27.221Z,101405.38
2022-11-05T22:13:29.936Z,101401.88
2022-11-05T22:18:32.661Z,101397.41
2022-11-05T22:23:36.796Z,101405.94
2022-11-05T22:28:39.623Z,101413.78
2022-11-05T22:33:42.364Z,101400.13
2022-11-05T22:38:46.501Z,101406.31
2022-11-05T22:43:50.290Z,101407.22
2022-11-05T22:48:53.985Z,101398.56
2022-11-05T22:53:58.339Z,101395.84
2022-11-05T22:59:01.208Z,101397.53
2022-11-05T23:04:04.036Z,101381.25
2022-11-05T23:09:32.564Z,101394.34
2022-11-05T23:14:36.103Z,101393.34
2022-11-05T23:19:56.229Z,101385.94
2022-11-05T23:25:00.716Z,101382.25
2022-11-05T23:30:06.729Z,101386.72
2022-11-05T23:35:10.077Z,101375.44
2022-11-05T23:40:17.285Z,101371.78
2022-11-05T23:45:36.921Z,101363.59
2022-11-05T23:50:40.491Z,101353.91
2022-11-05T23:55:45.033Z,101348.34
